createdAt,value
2019-01-21T00:00:42.866Z,79.03
2019-01-21T00:03:14.500Z,88.07
2019-01-21T00:05:37.881Z,89.07
2019-01-21T00:08:04.724Z,86.90
2019-01-21T00:10:31.258Z,87.53
2019-01-21T00:12:57.793Z,85.00
2019-01-21T00:15:24.326Z,83.87
2019-01-21T00:17:50.867Z,87.17
2019-01-21T00:20:17.703Z,97.53
2019-01-21T00:22:44.548Z,90.77
2019-01-21T00:25:11.083Z,94.57
2019-01-21T00:27:37.613Z,96.43
2019-01-21T00:30:04.152Z,103.97
2019-01-21T00:32:30.990Z,93.87
2019-01-21T00:34:57.524Z,95.07
2019-01-21T00:37:24.383Z,103.03
2019-01-21T00:39:51.230Z,105.43
2019-01-21T00:42:17.743Z,94.30
2019-01-21T00:44:44.587Z,103.07
2019-01-21T00:47:11.119Z,105.77
2019-01-21T00:49:37.669Z,96.27
2019-01-21T00:52:04.187Z,99.43
2019-01-21T00:54:31.030Z,100.30
2019-01-21T00:56:57.568Z,99.37
2019-01-21T00:59:24.098Z,102.87
2019-01-21T01:01:50.940Z,99.47
2019-01-21T01:04:17.475Z,101.63
2019-01-21T01:06:44.013Z,99.37
2019-01-21T01:09:11.158Z,98.93
2019-01-21T01:11:37.999Z,113.73
2019-01-21T01:14:04.535Z,100.90
2019-01-21T01:16:31.380Z,107.10
2019-01-21T01:18:57.911Z,106.33
2019-01-21T01:21:25.059Z,111.23
2019-01-21T01:23:51.594Z,112.27
2019-01-21T01:26:18.443Z,103.53
2019-01-21T01:28:44.973Z,106.27
2019-01-21T01:31:11.812Z,102.77
2019-01-21T01:33:38.653Z,103.83
2019-01-21T01:36:05.187Z,116.67
2019-01-21T01:38:31.722Z,109.73
2019-01-21T01:40:58.564Z,117.27
2019-01-21T01:43:25.099Z,107.23
2019-01-21T01:45:51.639Z,110.87
2019-01-21T01:48:18.207Z,100.60
2019-01-21T01:50:45.008Z,110.47
2019-01-21T01:53:11.850Z,105.23
2019-01-21T01:55:38.692Z,112.50
2019-01-21T01:58:05.227Z,105.67
2019-01-21T02:00:31.764Z,107.93
2019-01-21T02:02:58.604Z,106.40
2019-01-21T02:05:25.445Z,115.47
2019-01-21T02:07:52.287Z,117.53
2019-01-21T02:10:18.822Z,112.47
2019-01-21T02:12:45.970Z,105.13
2019-01-21T02:15:12.816Z,116.00
2019-01-21T02:17:39.349Z,115.37
2019-01-21T02:20:05.881Z,116.53
2019-01-21T02:22:32.417Z,104.97
2019-01-21T02:24:58.953Z,116.33
2019-01-21T02:27:26.099Z,115.37
2019-01-21T02:29:52.941Z,115.93
2019-01-21T02:32:19.474Z,117.73
2019-01-21T02:34:46.321Z,117.63
2019-01-21T02:37:13.159Z,116.10
2019-01-21T02:39:39.695Z,115.70
2019-01-21T02:42:06.538Z,117.97
2019-01-21T02:44:33.377Z,112.40
2019-01-21T02:46:59.910Z,110.80
2019-01-21T02:49:26.753Z,113.87
2019-01-21T02:51:53.289Z,114.67
2019-01-21T02:54:19.824Z,102.23
2019-01-21T02:56:46.357Z,112.93
2019-01-21T02:59:13.198Z,121.20
2019-01-21T03:01:40.039Z,115.40
2019-01-21T03:04:06.581Z,115.37
2019-01-21T03:06:33.117Z,118.57
2019-01-21T03:08:59.649Z,112.73
2019-01-21T03:11:26.179Z,124.17
2019-01-21T03:13:53.637Z,117.83
2019-01-21T03:16:20.176Z,119.67
2019-01-21T03:18:47.011Z,112.17
2019-01-21T03:21:13.854Z,110.67
2019-01-21T03:23:40.694Z,118.00
2019-01-21T03:26:07.536Z,123.00
2019-01-21T03:28:34.377Z,120.23
2019-01-21T03:31:00.913Z,125.60
2019-01-21T03:33:27.448Z,114.67
2019-01-21T03:35:54.295Z,115.50
2019-01-21T03:38:21.129Z,114.13
2019-01-21T03:40:47.970Z,123.00
2019-01-21T03:43:14.815Z,120.53
2019-01-21T03:45:41.655Z,110.43
2019-01-21T03:48:16.285Z,117.37
2019-01-21T03:50:36.568Z,123.53
2019-01-21T03:53:03.107Z,111.00
2019-01-21T03:55:29.942Z,120.37
2019-01-21T03:57:56.485Z,104.90
2019-01-21T04:00:23.938Z,109.63
2019-01-21T04:02:50.470Z,106.73
2019-01-21T04:05:17.004Z,109.77
2019-01-21T04:07:43.846Z,107.10
2019-01-21T04:10:10.712Z,103.73
2019-01-21T04:12:37.222Z,106.13
2019-01-21T04:15:04.677Z,97.43
2019-01-21T04:17:31.521Z,102.50
2019-01-21T04:19:58.361Z,98.37
2019-01-21T04:22:24.950Z,94.67
2019-01-21T04:24:51.639Z,103.60
2019-01-21T04:27:18.283Z,94.20
2019-01-21T04:29:44.809Z,98.83
2019-01-21T04:32:11.693Z,100.33
2019-01-21T04:34:38.491Z,89.83
2019-01-21T04:37:05.338Z,90.00
2019-01-21T04:39:31.876Z,86.27
2019-01-21T04:41:58.402Z,93.17
2019-01-21T04:44:25.243Z,88.87
2019-01-21T04:46:52.390Z,86.77
2019-01-21T04:49:19.236Z,89.10
2019-01-21T04:51:45.767Z,79.87
2019-01-21T04:54:12.611Z,85.27
2019-01-21T04:56:39.143Z,91.70
2019-01-21T04:59:05.986Z,89.13
2019-01-21T05:01:33.443Z,84.07
2019-01-21T05:04:00.286Z,78.17
2019-01-21T05:06:26.820Z,80.00
2019-01-21T05:08:53.354Z,82.23
2019-01-21T05:11:20.196Z,77.80
2019-01-21T05:13:46.732Z,82.57
2019-01-21T05:16:13.263Z,79.33
2019-01-21T05:18:41.282Z,76.80
2019-01-21T05:21:08.179Z,71.03
2019-01-21T05:23:35.016Z,70.37
2019-01-21T05:26:01.858Z,73.50
2019-01-21T05:28:28.394Z,76.77
2019-01-21T05:30:54.926Z,74.97
2019-01-21T05:33:22.076Z,71.77
2019-01-21T05:35:48.595Z,65.97
2019-01-21T05:38:15.451Z,68.27
2019-01-21T05:40:42.293Z,67.37
2019-01-21T05:43:08.831Z,70.50
2019-01-21T05:45:35.674Z,72.67
2019-01-21T05:48:02.510Z,67.50
2019-01-21T05:50:29.356Z,72.77
2019-01-21T05:52:55.888Z,67.43
2019-01-21T05:55:22.732Z,66.50
2019-01-21T05:57:49.327Z,67.93
2019-01-21T06:00:16.105Z,63.10
2019-01-21T06:02:42.948Z,66.80
2019-01-21T06:05:09.480Z,62.83
2019-01-21T06:07:36.327Z,68.60
2019-01-21T06:10:02.858Z,63.90
2019-01-21T06:12:29.394Z,62.27
2019-01-21T06:14:56.235Z,64.93
2019-01-21T06:17:22.773Z,59.37
2019-01-21T06:19:49.612Z,63.40
2019-01-21T06:22:16.453Z,63.00
2019-01-21T06:24:42.986Z,63.07
2019-01-21T06:27:09.832Z,58.90
2019-01-21T06:29:36.363Z,67.20
2019-01-21T06:32:03.205Z,63.03
2019-01-21T06:34:30.049Z,61.23
2019-01-21T06:36:56.582Z,60.30
2019-01-21T06:39:23.421Z,55.90
2019-01-21T06:41:49.946Z,53.47
2019-01-21T06:44:16.799Z,56.00
2019-01-21T06:46:43.334Z,55.17
2019-01-21T06:49:10.175Z,54.20
2019-01-21T06:51:36.721Z,52.37
2019-01-21T06:54:03.551Z,55.73
2019-01-21T06:56:30.086Z,54.43
2019-01-21T06:58:56.622Z,51.47
2019-01-21T07:01:23.463Z,56.83
2019-01-21T07:03:49.986Z,53.87
2019-01-21T07:06:16.459Z,52.10
2019-01-21T07:08:43.183Z,56.10
2019-01-21T07:11:09.910Z,56.43
2019-01-21T07:13:36.442Z,52.90
2019-01-21T07:16:02.976Z,55.13
2019-01-21T07:18:29.820Z,54.73
2019-01-21T07:20:56.387Z,57.50
2019-01-21T07:23:22.886Z,57.30
2019-01-21T07:25:49.728Z,56.20
2019-01-21T07:28:16.570Z,48.97
2019-01-21T07:30:43.418Z,51.87
2019-01-21T07:33:09.952Z,51.83
2019-01-21T07:35:36.787Z,49.83
2019-01-21T07:38:03.322Z,52.17
2019-01-21T07:40:30.163Z,53.90
2019-01-21T07:42:57.005Z,54.90
2019-01-21T07:45:23.848Z,53.90
2019-01-21T07:47:50.691Z,45.00
2019-01-21T07:50:17.530Z,57.40
2019-01-21T07:52:44.067Z,48.93
2019-01-21T07:55:10.909Z,52.63
2019-01-21T07:57:37.442Z,48.77
2019-01-21T08:00:04.283Z,55.10
2019-01-21T08:02:31.127Z,47.17
2019-01-21T08:04:57.659Z,46.97
2019-01-21T08:07:24.195Z,51.90
2019-01-21T08:09:50.734Z,49.60
2019-01-21T08:12:17.264Z,51.23
2019-01-21T08:14:43.942Z,57.33
2019-01-21T08:17:10.638Z,52.83
2019-01-21T08:19:37.566Z,52.90
2019-01-21T08:22:04.131Z,46.37
2019-01-21T08:24:30.856Z,48.77
2019-01-21T08:26:57.393Z,47.00
2019-01-21T08:29:24.238Z,47.87
2019-01-21T08:31:50.767Z,49.93
2019-01-21T08:34:17.619Z,51.70
2019-01-21T08:36:44.466Z,51.83
2019-01-21T08:39:11.295Z,45.17
2019-01-21T08:41:38.282Z,52.53
2019-01-21T08:44:05.283Z,46.47
2019-01-21T08:46:32.134Z,51.90
2019-01-21T08:48:58.746Z,52.00
2019-01-21T08:51:25.517Z,53.73
2019-01-21T08:53:52.347Z,51.37
2019-01-21T08:56:19.191Z,48.87
2019-01-21T08:58:46.045Z,51.10
2019-01-21T09:01:12.746Z,48.10
2019-01-21T09:03:39.442Z,51.53
2019-01-21T09:06:06.386Z,53.70
2019-01-21T09:08:37.562Z,45.60
2019-01-21T09:11:01.157Z,54.10
2019-01-21T09:13:27.692Z,53.10
2019-01-21T09:15:54.533Z,51.03
2019-01-21T09:18:21.399Z,46.03
2019-01-21T09:20:48.234Z,55.67
2019-01-21T09:23:15.127Z,46.30
2019-01-21T09:25:42.032Z,48.80
2019-01-21T09:28:08.755Z,46.43
2019-01-21T09:30:35.603Z,46.27
2019-01-21T09:33:02.587Z,51.30
2019-01-21T09:35:29.301Z,48.53
2019-01-21T09:37:55.800Z,47.83
2019-01-21T09:40:22.338Z,49.87
2019-01-21T09:42:49.177Z,47.20
2019-01-21T09:45:15.715Z,49.80
2019-01-21T09:47:42.553Z,49.53
2019-01-21T09:50:09.089Z,47.90
2019-01-21T09:52:35.624Z,49.30
2019-01-21T09:55:02.159Z,52.27
2019-01-21T09:57:28.691Z,54.37
2019-01-21T09:59:55.237Z,50.93
2019-01-21T10:02:21.760Z,48.27
2019-01-21T10:04:48.294Z,51.13
2019-01-21T10:07:15.139Z,45.73
2019-01-21T10:09:41.671Z,46.97
2019-01-21T10:12:08.206Z,47.50
2019-01-21T10:14:34.739Z,46.47
2019-01-21T10:17:01.274Z,50.87
2019-01-21T10:19:27.903Z,52.07
2019-01-21T10:21:54.659Z,46.70
2019-01-21T10:24:21.185Z,47.67
2019-01-21T10:26:47.718Z,49.07
2019-01-21T10:29:14.254Z,50.77
2019-01-21T10:31:41.096Z,50.53
2019-01-21T10:34:07.629Z,50.00
2019-01-21T10:36:34.164Z,46.17
2019-01-21T10:39:00.704Z,55.23
2019-01-21T10:41:27.246Z,50.87
2019-01-21T10:43:53.768Z,48.57
2019-01-21T10:46:20.303Z,47.33
2019-01-21T10:48:46.822Z,41.33
2019-01-21T10:51:13.372Z,50.20
2019-01-21T10:53:40.213Z,44.30
2019-01-21T10:56:06.748Z,51.50
2019-01-21T10:58:33.590Z,50.57
2019-01-21T11:01:00.219Z,47.30
2019-01-21T11:03:26.967Z,49.20
2019-01-21T11:05:53.501Z,46.53
2019-01-21T11:08:20.038Z,47.47
2019-01-21T11:10:46.573Z,47.30
2019-01-21T11:13:13.410Z,45.43
2019-01-21T11:15:39.947Z,46.60
2019-01-21T11:18:06.484Z,49.27
2019-01-21T11:20:33.014Z,51.50
2019-01-21T11:22:59.857Z,49.87
2019-01-21T11:25:26.698Z,48.07
2019-01-21T11:27:53.540Z,46.00
2019-01-21T11:30:20.381Z,50.03
2019-01-21T11:32:46.919Z,44.93
2019-01-21T11:35:13.451Z,45.37
2019-01-21T11:37:39.989Z,48.43
2019-01-21T11:40:07.676Z,39.87
2019-01-21T11:42:34.593Z,47.50
2019-01-21T11:45:01.125Z,43.90
2019-01-21T11:47:27.966Z,46.83
2019-01-21T11:49:54.807Z,49.63
2019-01-21T11:52:21.343Z,50.27
2019-01-21T11:54:47.885Z,48.53
2019-01-21T11:57:14.411Z,45.03
2019-01-21T11:59:41.253Z,48.30
2019-01-21T12:02:07.765Z,46.07
2019-01-21T12:04:34.646Z,49.40
2019-01-21T12:07:01.166Z,45.13
2019-01-21T12:09:28.928Z,51.60
2019-01-21T12:11:55.463Z,49.07
2019-01-21T12:14:21.996Z,48.90
2019-01-21T12:16:48.839Z,50.57
2019-01-21T12:19:15.373Z,45.67
2019-01-21T12:21:41.906Z,51.93
2019-01-21T12:24:08.444Z,51.10
2019-01-21T12:26:34.976Z,52.70
2019-01-21T12:29:02.063Z,49.90
2019-01-21T12:31:28.967Z,46.57
2019-01-21T12:33:55.504Z,50.57
2019-01-21T12:36:22.035Z,51.00
2019-01-21T12:38:48.573Z,53.70
2019-01-21T12:41:21.409Z,51.73
2019-01-21T12:43:43.175Z,47.47
2019-01-21T12:46:09.709Z,49.63
2019-01-21T12:48:36.244Z,49.33
2019-01-21T12:51:02.777Z,52.40
2019-01-21T12:53:29.312Z,50.80
2019-01-21T12:55:55.847Z,50.23
2019-01-21T12:58:22.385Z,48.87
2019-01-21T13:00:48.954Z,52.10
2019-01-21T13:03:15.757Z,47.63
2019-01-21T13:05:42.293Z,52.87
2019-01-21T13:08:08.833Z,50.10
2019-01-21T13:10:35.671Z,50.30
2019-01-21T13:13:02.203Z,48.13
2019-01-21T13:15:28.740Z,51.23
2019-01-21T13:17:55.583Z,47.30
2019-01-21T13:20:22.112Z,57.57
2019-01-21T13:22:51.616Z,48.73
2019-01-21T13:25:17.028Z,54.63
2019-01-21T13:27:44.264Z,57.23
2019-01-21T13:30:11.016Z,53.07
2019-01-21T13:32:37.552Z,52.37
2019-01-21T13:35:04.086Z,50.77
2019-01-21T13:37:30.927Z,52.77
2019-01-21T13:39:57.546Z,56.73
2019-01-21T13:42:24.304Z,48.73
2019-01-21T13:44:50.837Z,56.80
2019-01-21T13:47:17.373Z,52.73
2019-01-21T13:49:43.907Z,51.40
2019-01-21T13:52:10.751Z,51.47
2019-01-21T13:54:37.590Z,51.27
2019-01-21T13:57:04.432Z,50.70
2019-01-21T13:59:30.969Z,51.40
2019-01-21T14:01:57.825Z,59.23
2019-01-21T14:04:24.682Z,55.53
2019-01-21T14:06:51.505Z,53.37
2019-01-21T14:09:18.353Z,63.10
2019-01-21T14:11:45.437Z,53.87
2019-01-21T14:14:12.645Z,60.47
2019-01-21T14:16:39.166Z,55.23
2019-01-21T14:19:06.009Z,55.80
2019-01-21T14:21:32.878Z,55.10
2019-01-21T14:24:00.107Z,50.87
2019-01-21T14:26:26.896Z,55.97
2019-01-21T14:28:54.006Z,58.93
2019-01-21T14:31:21.147Z,51.03
2019-01-21T14:33:47.995Z,55.87
2019-01-21T14:36:14.836Z,61.33
2019-01-21T14:38:41.995Z,58.90
2019-01-21T14:41:08.814Z,54.70
2019-01-21T14:43:35.754Z,60.73
2019-01-21T14:46:03.574Z,53.47
2019-01-21T14:48:30.188Z,52.10
2019-01-21T14:50:56.748Z,53.63
2019-01-21T14:53:23.211Z,55.73
2019-01-21T14:55:49.781Z,54.43
2019-01-21T14:58:16.314Z,53.53
2019-01-21T15:00:42.813Z,56.20
2019-01-21T15:03:09.928Z,59.90
2019-01-21T15:05:36.637Z,60.73
2019-01-21T15:08:03.205Z,56.60
2019-01-21T15:10:29.993Z,58.40
2019-01-21T15:12:56.875Z,54.27
2019-01-21T15:15:23.716Z,59.33
2019-01-21T15:17:50.588Z,56.53
2019-01-21T15:20:17.369Z,56.17
2019-01-21T15:22:44.272Z,57.30
2019-01-21T15:25:11.069Z,56.57
2019-01-21T15:27:37.582Z,57.33
2019-01-21T15:30:04.158Z,61.00
2019-01-21T15:32:30.982Z,51.87
2019-01-21T15:34:57.572Z,59.13
2019-01-21T15:37:24.330Z,57.83
2019-01-21T15:39:51.055Z,58.53
2019-01-21T15:42:17.802Z,56.03
2019-01-21T15:44:44.857Z,59.90
2019-01-21T15:47:11.700Z,58.60
2019-01-21T15:49:38.535Z,53.97
2019-01-21T15:52:05.069Z,64.23
2019-01-21T15:54:31.615Z,61.20
2019-01-21T15:56:58.447Z,56.87
2019-01-21T15:59:25.301Z,66.57
2019-01-21T16:01:52.142Z,55.13
2019-01-21T16:04:18.972Z,54.00
2019-01-21T16:06:45.516Z,58.10
2019-01-21T16:09:12.040Z,57.13
2019-01-21T16:11:38.689Z,57.43
2019-01-21T16:14:05.412Z,57.30
2019-01-21T16:16:31.952Z,63.10
2019-01-21T16:18:58.487Z,65.27
2019-01-21T16:21:25.022Z,64.10
2019-01-21T16:23:51.862Z,63.13
2019-01-21T16:26:18.414Z,67.87
2019-01-21T16:28:45.239Z,58.17
2019-01-21T16:31:12.082Z,56.23
2019-01-21T16:33:38.616Z,60.50
2019-01-21T16:36:05.562Z,62.87
2019-01-21T16:38:32.369Z,62.63
2019-01-21T16:40:59.140Z,58.47
2019-01-21T16:43:25.674Z,61.23
2019-01-21T16:45:52.530Z,62.53
2019-01-21T16:48:19.053Z,59.47
2019-01-21T16:50:45.894Z,62.87
2019-01-21T16:53:12.739Z,61.67
2019-01-21T16:55:39.269Z,65.73
2019-01-21T16:58:06.113Z,65.40
2019-01-21T17:00:32.952Z,58.40
2019-01-21T17:02:59.490Z,61.03
2019-01-21T17:05:26.021Z,59.07
2019-01-21T17:07:52.863Z,68.77
2019-01-21T17:10:19.706Z,59.60
2019-01-21T17:12:46.239Z,63.37
2019-01-21T17:15:12.775Z,70.87
2019-01-21T17:17:39.309Z,60.80
2019-01-21T17:20:05.846Z,65.70
2019-01-21T17:22:32.684Z,64.27
2019-01-21T17:24:59.218Z,71.87
2019-01-21T17:27:25.755Z,61.23
2019-01-21T17:29:52.287Z,66.40
2019-01-21T17:32:18.822Z,58.70
2019-01-21T17:34:45.357Z,63.63
2019-01-21T17:37:11.892Z,65.47
2019-01-21T17:39:38.732Z,60.27
2019-01-21T17:42:05.574Z,68.47
2019-01-21T17:44:32.109Z,63.97
2019-01-21T17:46:58.645Z,61.97
2019-01-21T17:49:25.188Z,64.57
2019-01-21T17:51:52.110Z,62.83
2019-01-21T17:54:19.170Z,64.50
2019-01-21T17:56:45.708Z,67.47
2019-01-21T17:59:12.241Z,70.10
2019-01-21T18:01:39.431Z,69.30
2019-01-21T18:04:06.536Z,67.33
2019-01-21T18:06:33.381Z,60.97
2019-01-21T18:09:00.218Z,71.87
2019-01-21T18:11:26.942Z,61.80
2019-01-21T18:13:53.597Z,69.80
2019-01-21T18:16:20.134Z,68.77
2019-01-21T18:18:46.973Z,69.33
2019-01-21T18:21:13.813Z,67.13
2019-01-21T18:23:40.351Z,72.73
2019-01-21T18:26:06.883Z,69.73
2019-01-21T18:28:33.728Z,69.10
2019-01-21T18:31:00.263Z,71.87
2019-01-21T18:33:26.794Z,66.83
2019-01-21T18:35:53.331Z,71.63
2019-01-21T18:38:20.172Z,73.53
2019-01-21T18:40:46.709Z,64.90
2019-01-21T18:43:13.435Z,73.53
2019-01-21T18:45:40.080Z,68.90
2019-01-21T18:48:06.614Z,67.10
2019-01-21T18:50:33.459Z,71.83
2019-01-21T18:52:59.989Z,65.90
2019-01-21T18:55:26.547Z,70.43
2019-01-21T18:57:56.066Z,70.00
2019-01-21T19:00:21.437Z,66.43
2019-01-21T19:02:47.973Z,71.27
2019-01-21T19:05:14.514Z,70.47
2019-01-21T19:07:41.329Z,65.00
2019-01-21T19:10:07.883Z,73.90
2019-01-21T19:12:34.420Z,71.83
2019-01-21T19:15:00.952Z,68.17
2019-01-21T19:17:27.489Z,71.97
2019-01-21T19:19:54.327Z,71.80
2019-01-21T19:22:20.862Z,70.13
2019-01-21T19:24:47.403Z,68.73
2019-01-21T19:27:14.238Z,73.50
2019-01-21T19:29:41.079Z,76.43
2019-01-21T19:32:07.613Z,72.07
2019-01-21T19:34:34.149Z,73.83
2019-01-21T19:37:00.683Z,69.73
2019-01-21T19:39:27.218Z,69.83
2019-01-21T19:41:54.058Z,70.43
2019-01-21T19:44:20.593Z,68.70
2019-01-21T19:46:47.128Z,73.77
2019-01-21T19:49:13.970Z,68.40
2019-01-21T19:51:40.504Z,75.83
2019-01-21T19:54:07.346Z,72.13
2019-01-21T19:56:33.885Z,74.40
2019-01-21T19:59:00.416Z,76.67
2019-01-21T20:01:27.260Z,73.13
2019-01-21T20:03:53.792Z,69.03
2019-01-21T20:06:20.330Z,71.87
2019-01-21T20:08:46.864Z,69.20
2019-01-21T20:11:13.401Z,74.43
2019-01-21T20:13:40.239Z,71.33
2019-01-21T20:16:06.776Z,75.07
2019-01-21T20:18:33.306Z,76.53
2019-01-21T20:21:00.153Z,69.77
2019-01-21T20:23:26.685Z,70.93
2019-01-21T20:25:53.526Z,77.50
2019-01-21T20:28:20.374Z,70.73
2019-01-21T20:30:47.107Z,69.27
2019-01-21T20:33:13.741Z,71.50
2019-01-21T20:35:40.589Z,72.83
2019-01-21T20:38:07.428Z,74.60
2019-01-21T20:40:34.004Z,74.27
2019-01-21T20:43:01.116Z,76.23
2019-01-21T20:45:27.953Z,75.27
2019-01-21T20:47:54.791Z,74.50
2019-01-21T20:50:21.329Z,76.67
2019-01-21T20:52:47.863Z,73.57
2019-01-21T20:55:15.021Z,72.17
2019-01-21T20:57:41.626Z,75.37
2019-01-21T21:00:08.386Z,72.63
2019-01-21T21:02:34.923Z,76.00
2019-01-21T21:05:01.767Z,75.83
2019-01-21T21:07:28.548Z,65.73
2019-01-21T21:09:55.501Z,73.10
2019-01-21T21:12:25.810Z,73.97
2019-01-21T21:14:50.357Z,79.43
2019-01-21T21:17:17.207Z,75.97
2019-01-21T21:19:44.033Z,74.47
2019-01-21T21:22:10.882Z,73.17
2019-01-21T21:24:37.724Z,81.20
2019-01-21T21:27:04.566Z,78.90
2019-01-21T21:29:31.411Z,68.77
2019-01-21T21:31:58.483Z,79.77
2019-01-21T21:34:25.397Z,73.07
2019-01-21T21:36:51.933Z,74.30
2019-01-21T21:39:18.472Z,74.13
2019-01-21T21:41:45.309Z,73.90
2019-01-21T21:44:12.150Z,70.67
2019-01-21T21:46:38.687Z,70.13
2019-01-21T21:49:05.527Z,75.23
2019-01-21T21:51:32.371Z,76.70
2019-01-21T21:53:59.827Z,71.37
2019-01-21T21:56:26.668Z,72.07
2019-01-21T21:58:53.219Z,69.27
2019-01-21T22:01:23.938Z,72.93
2019-01-21T22:03:48.198Z,75.13
2019-01-21T22:06:14.957Z,73.67
2019-01-21T22:08:41.491Z,74.67
2019-01-21T22:11:08.332Z,69.43
2019-01-21T22:13:34.900Z,78.00
2019-01-21T22:16:01.706Z,73.33
2019-01-21T22:18:29.332Z,70.40
2019-01-21T22:20:56.472Z,76.63
2019-01-21T22:23:23.156Z,83.17
2019-01-21T22:25:49.696Z,71.70
2019-01-21T22:28:17.303Z,69.60
2019-01-21T22:30:43.991Z,70.83
2019-01-21T22:33:11.443Z,73.30
2019-01-21T22:35:38.286Z,74.23
2019-01-21T22:38:04.818Z,71.97
2019-01-21T22:40:31.660Z,71.17
2019-01-21T22:42:58.507Z,72.50
2019-01-21T22:45:25.036Z,69.83
2019-01-21T22:47:51.570Z,76.27
2019-01-21T22:50:18.414Z,72.07
2019-01-21T22:52:44.947Z,69.53
2019-01-21T22:55:11.483Z,71.07
2019-01-21T22:57:40.451Z,75.30
2019-01-21T23:00:07.622Z,71.10
2019-01-21T23:02:34.464Z,78.67
2019-01-21T23:05:00.998Z,73.90
2019-01-21T23:07:27.845Z,69.33
2019-01-21T23:09:54.686Z,70.63
2019-01-21T23:12:21.523Z,70.77
2019-01-21T23:14:48.059Z,73.67
2019-01-21T23:17:14.903Z,69.83
2019-01-21T23:19:42.827Z,72.50
2019-01-21T23:22:09.505Z,65.33
2019-01-21T23:24:36.335Z,77.97
2019-01-21T23:27:02.866Z,72.30
2019-01-21T23:29:29.723Z,72.07
2019-01-21T23:31:56.260Z,80.67
2019-01-21T23:34:23.099Z,76.47
2019-01-21T23:36:49.942Z,65.90
2019-01-21T23:39:16.782Z,73.53
2019-01-21T23:41:43.317Z,78.13
2019-01-21T23:44:09.851Z,73.50
2019-01-21T23:46:36.386Z,68.87
2019-01-21T23:49:03.229Z,72.17
2019-01-21T23:51:30.684Z,70.37
2019-01-21T23:53:57.219Z,76.40
2019-01-21T23:56:23.765Z,73.57
2019-01-21T23:58:50.595Z,76.07
